Decoded Metar for KLHW (WRIGHT in GA, USA) (IATA:LHW) | Meteo·Mobile Aviation Weather
aviador You're here:

KLHW Decoded Metar

WRIGHT in GA, USA
Report Time2018-09-21 09:56:00
UTC Time2018-09-21 10:34:07
Flight Rules vfr VFR
WindCalm
Visibility9999 m
Phenomena:N/A
Clouds:Scattered 022 Hf
Scattered 028 Hf
Expected CloudBase > 400 ft AGL from Temp-Dew spread
CeilingNone
Temp22°C (ISA +7)
Dew Point21°C (94% RH)
QNH1020 hPa
Density Alt965 ft
Elevation46 ft
Report Wrong Elevation
Raw Report
KLHW 210956Z AUTO 00000KT 10SM SCT022 SCT028 22/21 A3011 RMK AO2
SLP199 T02180209 $=

Extra information for KLHW:More info

Metar Taf Metar & Taf Last 4 Metars F.Rules Stats Wind Profile Meteogram Temp Stats Airport Information Weather charts Add Link Nearby VenuesMetar ALERT Operation Metar Decoded Social comments

AIRNAV info for KLHW